Da Xian, China
Current Conditions -  °F | °C
As of 1:00 AM on Friday 24 Oct 2014 (Local Time) from ZUCK Reporting Station
Haze Haze  
Wind Chill: 61°   Ceiling: Unl
Heat Index: 61°   Visibility: 1.8mi
Dew Point: 57°   Wind: 7mph
Humidity: 88%   Direction: 360°N
Pressure: 30.06"   Gusts: NA
Location:  31.2°N, 107.5°E
Report Text: ZUCK 231700Z 36003MPS 3000 BR NSC 16/14 Q1018 BECMGTL18202000 BR
Loading
Personal Weather Stations






























Interactive Weather Map New forecast layout! Learn more

10-Day Weather Forecast

Advertisements
Track Severe Weather on mobile